Time;durP1;ratioP1;P1;durP2;ratioP2;P2;SDS_P1;SDS_P2;PMS_P1;PMS_P2;Temp;Humidity;BMP_temperature;BMP_pressure;BME280_temperature;BME280_humidity;BME280_pressure;Samples;Min_cycle;Max_cycle;Signal;HPM_P1;HPM_P2
2022/05/02 00:00:06;;;;;;;5.08;4.08;;;10.70;91.90;;;;;;1862801;76;21367;-58
2022/05/02 00:02:36;;;;;;;5.87;4.22;;;10.70;92.00;;;;;;1862793;77;21669;-57
2022/05/02 00:05:07;;;;;;;3.92;3.33;;;10.60;91.80;;;;;;1862817;76;21104;-58
2022/05/02 00:07:36;;;;;;;4.78;3.55;;;10.70;92.00;;;;;;1862843;77;21169;-58
2022/05/02 00:10:07;;;;;;;2.83;2.50;;;10.70;91.80;;;;;;1862857;76;21296;-58
2022/05/02 00:12:36;;;;;;;5.37;3.67;;;10.70;92.10;;;;;;1862907;77;21247;-57
2022/05/02 00:15:08;;;;;;;4.05;3.50;;;10.70;92.00;;;;;;1862835;77;21718;-58
2022/05/02 00:20:32;;;;;;;5.17;3.98;;;10.60;91.90;;;;;;1862919;77;21254;-57
2022/05/02 00:23:04;;;;;;;4.15;3.75;;;10.70;92.00;;;;;;1862896;76;21139;-59
2022/05/02 00:25:33;;;;;;;6.83;4.65;;;10.70;91.90;;;;;;1862985;76;21691;-57
2022/05/02 00:28:04;;;;;;;4.75;3.77;;;10.70;92.00;;;;;;1862975;76;21173;-58
2022/05/02 00:30:33;;;;;;;6.08;4.28;;;10.70;91.90;;;;;;1862984;76;21292;-57
2022/05/02 00:33:02;;;;;;;6.10;4.00;;;10.70;92.00;;;;;;1863055;77;21107;-58
2022/05/02 00:35:32;;;;;;;5.85;4.22;;;10.70;92.00;;;;;;1862788;76;21214;-58
2022/05/02 00:38:02;;;;;;;6.05;4.08;;;10.70;91.90;;;;;;1862909;76;21268;-58
2022/05/02 00:40:31;;;;;;;4.72;3.77;;;10.70;91.70;;;;;;1862979;77;21022;-58
2022/05/02 00:43:00;;;;;;;4.72;3.37;;;10.70;91.90;;;;;;1863020;77;21243;-59
2022/05/02 00:45:30;;;;;;;4.25;3.12;;;10.70;91.90;;;;;;1863030;77;21131;-58
2022/05/02 00:47:59;;;;;;;5.55;4.42;;;10.80;91.90;;;;;;1862883;76;21238;-58
2022/05/02 00:50:42;;;;;;;3.42;3.12;;;10.70;91.80;;;;;;1862918;77;21158;-58
2022/05/02 00:53:14;;;;;;;6.65;3.15;;;10.70;91.90;;;;;;1862909;77;21278;-58
2022/05/02 00:55:45;;;;;;;4.08;3.05;;;10.70;91.90;;;;;;1861984;77;21161;-58
2022/05/02 00:58:16;;;;;;;2.85;1.85;;;10.70;92.00;;;;;;1862996;76;21195;-58
2022/05/02 01:00:45;;;;;;;4.33;3.90;;;10.70;92.20;;;;;;1862765;77;21234;-58
2022/05/02 01:03:15;;;;;;;2.92;2.60;;;10.60;92.10;;;;;;1862771;77;21324;-58
2022/05/02 01:08:34;;;;;;;5.17;2.95;;;10.60;92.30;;;;;;1862804;77;21318;-56
2022/05/02 01:11:03;;;;;;;4.97;2.55;;;10.60;92.30;;;;;;1862737;76;21292;-56
2022/05/02 01:13:44;;;;;;;5.05;2.42;;;10.60;92.30;;;;;;1862894;76;21239;-56
2022/05/02 01:16:21;;;;;;;3.83;3.47;;;10.60;92.40;;;;;;1862883;77;21728;-56
2022/05/02 01:18:51;;;;;;;3.65;3.05;;;10.60;92.30;;;;;;1862841;77;21366;-55
2022/05/02 01:21:22;;;;;;;6.00;3.85;;;10.60;92.30;;;;;;1862840;77;21075;-56
2022/05/02 01:23:57;;;;;;;5.10;3.35;;;10.60;92.30;;;;;;1853771;77;21532;-56
2022/05/02 01:29:24;;;;;;;3.33;2.15;;;10.60;92.20;;;;;;1927423;74;21297;-56
2022/05/02 01:31:55;;;;;;;4.15;3.00;;;10.60;92.40;;;;;;1927314;74;21064;-56
2022/05/02 01:34:24;;;;;;;7.67;3.37;;;10.60;92.30;;;;;;1926709;74;21165;-56
2022/05/02 01:36:55;;;;;;;4.10;3.65;;;10.50;92.30;;;;;;1927470;74;21156;-56
2022/05/02 01:39:24;;;;;;;4.03;3.58;;;10.50;92.30;;;;;;1927436;74;21176;-56
2022/05/02 01:41:53;;;;;;;6.20;3.02;;;10.60;92.30;;;;;;1927265;74;21160;-57
2022/05/02 01:44:23;;;;;;;6.58;3.22;;;10.60;92.20;;;;;;1927284;74;21215;-57
2022/05/02 01:46:53;;;;;;;4.17;3.30;;;10.60;92.20;;;;;;1927412;74;21357;-56
2022/05/02 01:49:23;;;;;;;3.42;3.12;;;10.60;92.10;;;;;;1927375;74;21175;-57
2022/05/02 01:51:53;;;;;;;5.80;3.47;;;10.60;92.00;;;;;;1927415;74;21200;-56
2022/05/02 01:54:22;;;;;;;3.95;2.75;;;10.60;92.00;;;;;;1927305;74;21103;-56
2022/05/02 01:56:52;;;;;;;6.87;3.00;;;10.60;92.00;;;;;;1927396;74;21159;-56
2022/05/02 01:59:21;;;;;;;2.52;2.10;;;10.60;92.00;;;;;;1927281;74;21190;-57
2022/05/02 02:01:51;;;;;;;3.00;2.70;;;10.60;92.00;;;;;;1927288;74;21276;-57
2022/05/02 02:07:08;;;;;;;3.15;2.60;;;10.60;91.90;;;;;;1927391;74;21229;-57
2022/05/02 02:09:37;;;;;;;2.58;2.37;;;10.60;91.90;;;;;;1927289;74;21083;-56
2022/05/02 02:12:07;;;;;;;4.25;3.00;;;10.60;91.90;;;;;;1927416;74;21103;-57
2022/05/02 02:14:37;;;;;;;3.62;2.77;;;10.60;91.90;;;;;;1927266;74;21152;-56
2022/05/02 02:17:06;;;;;;;2.90;2.60;;;10.50;91.90;;;;;;1927332;74;21224;-56
2022/05/02 02:19:36;;;;;;;2.25;1.95;;;10.50;91.90;;;;;;1927564;74;21171;-57
2022/05/02 02:22:39;;;;;;;4.97;2.83;;;10.50;91.80;;;;;;1927309;74;21289;-56
2022/05/02 02:24:43;;;;;;;2.72;2.50;;;10.50;91.80;;;;;;1918947;74;21103;-57
2022/05/02 02:27:12;;;;;;;4.28;2.47;;;10.50;91.80;;;;;;1927176;74;21212;-57
2022/05/02 02:29:41;;;;;;;2.55;2.05;;;10.50;91.80;;;;;;1912178;74;21233;-56
2022/05/02 02:32:11;;;;;;;5.00;2.08;;;10.50;91.70;;;;;;1911877;75;21047;-56
2022/05/02 02:34:41;;;;;;;4.03;2.70;;;10.50;91.70;;;;;;1911872;75;21218;-57
2022/05/02 02:37:10;;;;;;;6.40;3.15;;;10.50;91.80;;;;;;1911879;75;21154;-57
2022/05/02 02:39:39;;;;;;;3.27;2.60;;;10.50;91.70;;;;;;1911833;75;21146;-56
2022/05/02 02:42:09;;;;;;;3.00;2.70;;;10.50;91.70;;;;;;1911808;75;21117;-57
2022/05/02 02:44:39;;;;;;;4.15;2.90;;;10.50;91.70;;;;;;1911901;75;21075;-56
2022/05/02 02:47:08;;;;;;;5.55;2.80;;;10.50;91.80;;;;;;1911940;75;21064;-57
2022/05/02 02:49:37;;;;;;;3.40;3.08;;;10.50;91.80;;;;;;1911979;75;21450;-57
2022/05/02 02:52:08;;;;;;;2.72;2.45;;;10.50;91.90;;;;;;1911810;75;21248;-56
2022/05/02 02:54:37;;;;;;;3.45;2.25;;;10.50;92.00;;;;;;1911800;75;21200;-57
2022/05/02 02:57:07;;;;;;;3.80;2.83;;;10.50;92.00;;;;;;1911767;75;21152;-57
2022/05/02 02:59:36;;;;;;;4.62;2.85;;;10.50;92.00;;;;;;1911904;75;21377;-57
2022/05/02 03:02:07;;;;;;;7.12;3.35;;;10.50;92.10;;;;;;1911764;75;21273;-57
2022/05/02 03:07:26;;;;;;;3.33;2.45;;;10.40;92.20;;;;;;1911882;75;21096;-56
2022/05/02 03:09:57;;;;;;;4.30;2.45;;;10.40;92.40;;;;;;1911944;75;21733;-57
2022/05/02 03:12:27;;;;;;;2.65;2.05;;;10.40;92.80;;;;;;1911819;75;21465;-57
2022/05/02 03:14:56;;;;;;;3.58;3.10;;;10.40;92.60;;;;;;1911739;75;21565;-56
2022/05/02 03:17:25;;;;;;;2.60;2.37;;;10.30;92.70;;;;;;1911859;75;21192;-57
2022/05/02 03:19:55;;;;;;;3.12;1.65;;;10.30;92.80;;;;;;1911902;75;21668;-57
2022/05/02 03:22:24;;;;;;;5.28;3.08;;;10.30;92.80;;;;;;1911862;75;21252;-57
2022/05/02 03:24:54;;;;;;;2.77;2.02;;;10.30;92.80;;;;;;1911802;75;21242;-57
2022/05/02 03:27:24;;;;;;;4.42;3.62;;;10.40;93.10;;;;;;1911853;75;21269;-56
2022/05/02 03:29:54;;;;;;;2.45;2.25;;;10.30;92.90;;;;;;1924858;74;21179;-57
2022/05/02 03:32:23;;;;;;;2.75;2.30;;;10.30;93.00;;;;;;1928034;74;21308;-56
2022/05/02 03:34:52;;;;;;;6.17;4.97;;;10.30;92.90;;;;;;1928076;74;21191;-57
2022/05/02 03:37:22;;;;;;;3.30;2.98;;;10.30;92.80;;;;;;1928166;74;21198;-57
2022/05/02 03:39:51;;;;;;;2.02;1.82;;;10.30;92.80;;;;;;1928153;74;21368;-57
2022/05/02 03:42:21;;;;;;;4.22;3.10;;;10.30;92.70;;;;;;1928170;74;21426;-57
2022/05/02 03:44:51;;;;;;;2.85;2.58;;;10.30;92.80;;;;;;1928081;74;21055;-57
2022/05/02 03:47:21;;;;;;;2.10;1.90;;;10.30;92.80;;;;;;1928178;74;21216;-57
2022/05/02 03:49:51;;;;;;;3.17;2.42;;;10.30;92.90;;;;;;1928067;74;21209;-57
2022/05/02 03:52:20;;;;;;;3.58;2.33;;;10.30;92.90;;;;;;1928159;74;21124;-57
2022/05/02 03:54:49;;;;;;;2.65;2.20;;;10.30;92.80;;;;;;1928205;74;21143;-56
2022/05/02 03:57:19;;;;;;;2.72;2.35;;;10.30;92.80;;;;;;1928038;74;21099;-57
2022/05/02 03:59:48;;;;;;;5.33;3.72;;;10.30;92.80;;;;;;1928112;74;21160;-57
2022/05/02 04:02:18;;;;;;;4.35;3.52;;;10.20;92.80;;;;;;1928040;74;21239;-57
2022/05/02 04:04:47;;;;;;;2.62;2.42;;;10.30;92.80;;;;;;1928094;74;21216;-57
2022/05/02 04:07:16;;;;;;;5.83;3.80;;;10.30;92.90;;;;;;1928310;74;21212;-57
2022/05/02 04:09:46;;;;;;;2.98;2.35;;;10.30;92.70;;;;;;1928304;74;21148;-57
2022/05/02 04:12:15;;;;;;;4.30;3.42;;;10.30;92.70;;;;;;1928312;74;21152;-57
2022/05/02 04:14:44;;;;;;;2.95;2.42;;;10.30;92.60;;;;;;1928310;74;21181;-57
2022/05/02 04:17:14;;;;;;;5.17;3.87;;;10.30;92.50;;;;;;1928243;74;21241;-57
2022/05/02 04:19:43;;;;;;;4.85;4.22;;;10.30;92.70;;;;;;1928399;74;21168;-57
2022/05/02 04:22:12;;;;;;;3.83;3.10;;;10.30;92.60;;;;;;1928391;74;21208;-57
2022/05/02 04:24:42;;;;;;;5.55;3.90;;;10.30;92.50;;;;;;1928355;74;21149;-57
2022/05/02 04:27:11;;;;;;;4.05;3.58;;;10.30;92.60;;;;;;1928317;74;21147;-57
2022/05/02 04:29:41;;;;;;;2.72;2.45;;;10.30;92.50;;;;;;1928142;74;21184;-57
2022/05/02 04:32:10;;;;;;;4.60;3.80;;;10.20;92.50;;;;;;1928219;74;21031;-57
2022/05/02 04:34:40;;;;;;;11.08;4.17;;;10.20;92.50;;;;;;1928291;74;21206;-57
2022/05/02 04:37:09;;;;;;;3.08;2.37;;;10.20;92.60;;;;;;1928206;74;21206;-57
2022/05/02 04:39:38;;;;;;;3.80;3.35;;;10.20;92.40;;;;;;1928182;74;21103;-57
2022/05/02 04:42:08;;;;;;;3.92;3.35;;;10.20;92.30;;;;;;1928238;74;21305;-57
2022/05/02 04:44:39;;;;;;;3.00;2.20;;;10.20;92.30;;;;;;1928265;74;21087;-58
2022/05/02 04:47:08;;;;;;;4.20;3.47;;;10.10;92.30;;;;;;1928316;74;21067;-56
2022/05/02 04:49:37;;;;;;;3.95;2.90;;;10.10;92.50;;;;;;1928255;74;21087;-57
2022/05/02 04:52:07;;;;;;;5.45;3.70;;;10.10;92.40;;;;;;1928308;74;21144;-57
2022/05/02 04:54:36;;;;;;;4.37;3.90;;;10.10;92.40;;;;;;1928320;74;21091;-57
2022/05/02 04:57:06;;;;;;;4.53;3.50;;;10.10;92.30;;;;;;1928229;74;21087;-56
2022/05/02 04:59:35;;;;;;;6.72;4.10;;;10.10;92.30;;;;;;1928125;74;21087;-57
2022/05/02 05:02:05;;;;;;;3.92;3.52;;;10.10;92.30;;;;;;1928156;74;21115;-57
2022/05/02 05:04:35;;;;;;;5.85;3.65;;;10.10;92.20;;;;;;1928254;74;21092;-57
2022/05/02 05:07:04;;;;;;;5.40;3.92;;;10.10;92.20;;;;;;1928244;74;21101;-57
2022/05/02 05:09:34;;;;;;;6.70;4.12;;;10.10;92.20;;;;;;1928165;74;21208;-56
2022/05/02 05:12:12;;;;;;;4.60;3.40;;;10.10;92.10;;;;;;1928250;74;21111;-57
2022/05/02 05:18:30;;;;;;;2.80;2.47;;;10.00;92.10;;;;;;1826702;78;21138;-56
2022/05/02 05:21:02;;;;;;;6.00;4.17;;;10.00;92.20;;;;;;1826692;78;21077;-56
2022/05/02 05:23:57;;;;;;;5.42;4.78;;;10.00;92.00;;;;;;1909331;74;21157;-56
2022/05/02 05:26:41;;;;;;;5.72;3.72;;;10.00;92.20;;;;;;1928318;74;21138;-56
2022/05/02 05:29:35;;;;;;;7.70;5.78;;;10.00;92.20;;;;;;1897563;74;21452;-57
2022/05/02 05:32:24;;;;;;;4.00;2.85;;;10.00;92.20;;;;;;1928379;74;21119;-56
2022/05/02 05:35:04;;;;;;;5.83;4.03;;;10.00;92.10;;;;;;1928045;74;21295;-56
2022/05/02 05:37:36;;;;;;;4.17;3.83;;;10.00;92.10;;;;;;1928125;74;21090;-56
2022/05/02 05:40:26;;;;;;;4.47;3.47;;;10.00;91.90;;;;;;1928271;74;21103;-57
2022/05/02 05:43:16;;;;;;;6.72;4.58;;;10.00;91.90;;;;;;1928239;74;21079;-57
2022/05/02 05:46:24;;;;;;;3.83;2.83;;;10.00;91.90;;;;;;1903216;74;21193;-57
2022/05/02 05:49:30;;;;;;;4.60;3.62;;;10.00;91.80;;;;;;1928222;74;21115;-56
2022/05/02 05:52:30;;;;;;;8.33;2.50;;;10.00;91.80;;;;;;1928273;74;21112;-56
2022/05/02 05:55:08;;;;;;;3.35;2.55;;;10.00;91.50;;;;;;1926922;74;21084;-57
2022/05/02 05:58:06;;;;;;;4.08;3.65;;;10.10;91.50;;;;;;1928130;74;21091;-57
2022/05/02 06:00:38;;;;;;;3.45;2.02;;;10.00;91.60;;;;;;1927831;74;21093;-57
2022/05/02 06:03:17;;;;;;;6.78;3.27;;;10.10;91.60;;;;;;1927318;74;21508;-56
2022/05/02 06:05:48;;;;;;;4.55;4.10;;;10.10;91.50;;;;;;1928248;74;21027;-57
2022/05/02 06:08:19;;;;;;;5.47;4.65;;;10.10;91.50;;;;;;1928118;74;21092;-56
2022/05/02 06:10:51;;;;;;;6.53;3.62;;;10.10;91.50;;;;;;1928231;74;21038;-56
2022/05/02 06:13:22;;;;;;;4.47;3.47;;;10.20;91.30;;;;;;1928116;74;21028;-56
2022/05/02 06:18:41;;;;;;;7.53;4.55;;;10.20;91.10;;;;;;1928277;74;21075;-57
2022/05/02 06:21:12;;;;;;;3.85;3.30;;;10.20;91.20;;;;;;1928160;74;21469;-56
2022/05/02 06:23:47;;;;;;;8.40;4.17;;;10.20;91.20;;;;;;1928245;74;21485;-57
2022/05/02 06:26:20;;;;;;;4.00;3.65;;;10.20;91.10;;;;;;1928481;74;21101;-57
2022/05/02 06:28:52;;;;;;;2.42;2.22;;;10.20;91.20;;;;;;1928228;74;21566;-57
2022/05/02 06:31:24;;;;;;;2.42;2.22;;;10.30;91.00;;;;;;1928186;74;21055;-57
2022/05/02 06:33:54;;;;;;;5.35;3.70;;;10.30;90.90;;;;;;1928319;74;21085;-57
2022/05/02 06:36:33;;;;;;;2.33;2.10;;;10.30;91.00;;;;;;1928226;74;21225;-57
2022/05/02 06:39:04;;;;;;;6.83;4.12;;;10.30;91.00;;;;;;1928237;74;20991;-56
2022/05/02 06:41:56;;;;;;;2.95;2.35;;;10.30;90.90;;;;;;1928358;74;21540;-58
2022/05/02 06:44:40;;;;;;;7.12;3.05;;;10.30;90.60;;;;;;1928134;74;21097;-57
2022/05/02 06:47:30;;;;;;;3.50;3.02;;;10.30;90.80;;;;;;1927858;74;21112;-56
2022/05/02 06:50:01;;;;;;;5.42;3.22;;;10.40;90.70;;;;;;1927139;74;21003;-57
2022/05/02 06:52:36;;;;;;;2.42;1.98;;;10.40;90.80;;;;;;1928333;74;21075;-57
2022/05/02 06:55:23;;;;;;;3.45;2.15;;;10.40;90.80;;;;;;1907638;74;21011;-56
2022/05/02 06:58:18;;;;;;;4.70;3.77;;;10.30;90.70;;;;;;1927288;74;21027;-57
2022/05/02 07:01:05;;;;;;;2.83;2.58;;;10.30;90.80;;;;;;1928158;74;21038;-57
2022/05/02 07:04:09;;;;;;;3.00;2.15;;;10.30;90.40;;;;;;1928216;74;21125;-56
2022/05/02 07:06:58;;;;;;;3.45;2.35;;;10.30;90.50;;;;;;1928260;74;21124;-58
2022/05/02 07:09:47;;;;;;;3.30;2.83;;;10.30;90.50;;;;;;1928226;74;21022;-56
2022/05/02 07:12:22;;;;;;;3.62;2.75;;;10.30;90.60;;;;;;1928076;74;21027;-56
2022/05/02 07:15:15;;;;;;;2.35;2.15;;;10.30;90.60;;;;;;1928174;74;21043;-56
2022/05/02 07:17:47;;;;;;;5.22;3.30;;;10.30;90.50;;;;;;1926988;74;21019;-56
2022/05/02 07:20:48;;;;;;;5.20;3.45;;;10.40;90.40;;;;;;1925855;74;21042;-56
2022/05/02 07:23:42;;;;;;;2.58;2.30;;;10.30;90.40;;;;;;1928015;74;21470;-57
2022/05/02 07:26:17;;;;;;;6.97;5.22;;;10.30;90.40;;;;;;1927375;74;21219;-57
2022/05/02 07:28:49;;;;;;;3.22;2.62;;;10.30;90.40;;;;;;1928180;74;21117;-56
2022/05/02 07:31:22;;;;;;;2.83;2.55;;;10.30;90.40;;;;;;1928034;74;21062;-56
2022/05/02 07:33:54;;;;;;;4.12;2.95;;;10.30;90.40;;;;;;1928040;74;21007;-57
2022/05/02 07:36:25;;;;;;;2.87;2.42;;;10.40;90.40;;;;;;1927894;74;21086;-57
2022/05/02 07:39:00;;;;;;;3.52;3.10;;;10.40;90.40;;;;;;1928049;74;21502;-56
2022/05/02 07:41:30;;;;;;;3.30;2.45;;;10.40;90.30;;;;;;1928411;74;21113;-57
2022/05/02 07:44:04;;;;;;;3.37;2.92;;;10.40;90.10;;;;;;1928276;74;21030;-58
2022/05/02 07:46:45;;;;;;;2.75;2.50;;;10.40;90.10;;;;;;1928469;74;21501;-58
2022/05/02 07:49:23;;;;;;;4.47;4.08;;;10.40;90.00;;;;;;1928177;74;21027;-58
2022/05/02 07:51:54;;;;;;;6.50;3.47;;;10.40;90.40;;;;;;1922677;74;21055;-58
2022/05/02 07:54:29;;;;;;;4.40;3.05;;;10.40;90.30;;;;;;1928150;74;21034;-57
2022/05/02 07:57:00;;;;;;;7.55;4.12;;;10.40;90.10;;;;;;1928299;74;21036;-57
2022/05/02 07:59:43;;;;;;;4.05;3.50;;;10.40;90.00;;;;;;1928163;74;21031;-57
2022/05/02 08:02:14;;;;;;;7.65;3.50;;;10.40;90.10;;;;;;1928200;74;21047;-58
2022/05/02 08:04:44;;;;;;;3.65;2.90;;;10.50;90.20;;;;;;1928346;74;21023;-57
2022/05/02 08:07:37;;;;;;;6.50;3.83;;;10.50;90.10;;;;;;1928199;74;21069;-57
2022/05/02 08:10:37;;;;;;;5.37;3.70;;;10.50;90.20;;;;;;1928367;74;21534;-57
2022/05/02 08:13:24;;;;;;;2.77;2.47;;;10.50;90.10;;;;;;1826896;78;21041;-57
2022/05/02 08:16:07;;;;;;;4.05;3.30;;;10.50;89.80;;;;;;1826438;78;21060;-57
2022/05/02 08:18:47;;;;;;;4.65;3.95;;;10.50;90.00;;;;;;1894332;74;21493;-56
2022/05/02 08:21:19;;;;;;;4.92;3.90;;;10.50;90.10;;;;;;1927289;74;21566;-57
2022/05/02 08:27:16;;;;;;;3.87;3.58;;;10.50;90.10;;;;;;1928268;74;21096;-57
2022/05/02 08:29:49;;;;;;;;;;;10.60;90.10;;;;;;1931156;74;21101;-57
2022/05/02 08:32:26;;;;;;;4.80;3.62;;;10.60;90.10;;;;;;1928057;74;20106;-57
2022/05/02 08:35:16;;;;;;;2.12;1.92;;;10.60;90.00;;;;;;1928173;74;21019;-57
2022/05/02 08:38:07;;;;;;;2.83;2.47;;;10.50;89.60;;;;;;1928230;74;21018;-57
2022/05/02 08:40:48;;;;;;;4.30;3.90;;;10.60;89.50;;;;;;1928109;74;21128;-57
2022/05/02 08:43:29;;;;;;;4.72;3.27;;;10.50;89.60;;;;;;1924665;74;21226;-57
2022/05/02 08:46:33;;;;;;;4.80;3.95;;;10.50;90.00;;;;;;1928240;74;21022;-57
2022/05/02 08:49:38;;;;;;;3.95;3.20;;;10.50;89.80;;;;;;1928388;74;21043;-57
2022/05/02 08:52:27;;;;;;;4.67;2.67;;;10.50;89.70;;;;;;1926885;74;21112;-57
2022/05/02 08:55:35;;;;;;;3.92;3.22;;;10.50;89.70;;;;;;1928630;74;20999;-57
2022/05/02 08:58:15;;;;;;;2.90;2.60;;;10.50;89.40;;;;;;1928382;74;21054;-58
2022/05/02 09:01:00;;;;;;;4.05;2.58;;;10.50;89.50;;;;;;1927835;74;21105;-57
2022/05/02 09:03:56;;;;;;;4.73;3.27;;;10.50;89.90;;;;;;1928643;74;21156;-58
2022/05/02 09:06:53;;;;;;;3.33;2.22;;;10.50;89.80;;;;;;1928432;74;21428;-57
2022/05/02 09:09:48;;;;;;;4.62;3.52;;;10.60;89.70;;;;;;1928392;74;21022;-57
2022/05/02 09:12:35;;;;;;;4.05;3.25;;;10.60;89.70;;;;;;1928447;74;21059;-57
2022/05/02 09:15:20;;;;;;;4.15;3.33;;;10.60;89.60;;;;;;1927013;74;21159;-57
2022/05/02 09:18:20;;;;;;;3.17;2.22;;;10.60;89.80;;;;;;1928190;74;21003;-57
2022/05/02 09:21:00;;;;;;;2.98;2.60;;;10.60;89.40;;;;;;1924905;74;21023;-56
2022/05/02 09:23:38;;;;;;;4.53;2.15;;;10.60;89.60;;;;;;1928359;74;21108;-56
2022/05/02 09:26:27;;;;;;;2.47;2.20;;;10.60;89.30;;;;;;1926920;74;21038;-56
2022/05/02 09:29:26;;;;;;;5.62;3.27;;;10.60;89.10;;;;;;1928284;74;21121;-56
2022/05/02 09:32:08;;;;;;;5.83;3.40;;;10.70;88.90;;;;;;1927295;74;21050;-56
2022/05/02 09:34:38;;;;;;;;;;;10.60;89.10;;;;;;1931258;74;21023;-56
2022/05/02 09:37:09;;;;;;;2.00;1.90;;;10.60;88.50;;;;;;1928257;74;20102;-56
2022/05/02 09:39:50;;;;;;;4.10;2.40;;;10.60;88.40;;;;;;1928122;74;21473;-57
2022/05/02 09:42:31;;;;;;;4.55;2.62;;;10.60;88.50;;;;;;1927887;74;21132;-57
2022/05/02 09:51:32;;;;;;;2.58;2.37;;;10.70;88.80;;;;;;1908629;74;21143;-57
2022/05/02 09:56:37;;;;;;;2.45;2.08;;;10.70;88.50;;;;;;1927625;74;21104;-57
2022/05/02 09:56:48;;;;;;;3.12;2.83;;;10.80;88.30;;;;;;1927761;74;21117;-57
2022/05/02 09:59:31;;;;;;;3.20;2.80;;;10.80;88.80;;;;;;1928178;74;21034;-57
2022/05/02 10:02:05;;;;;;;3.62;3.10;;;10.80;88.70;;;;;;1928221;74;21023;-57
2022/05/02 10:04:46;;;;;;;2.70;2.42;;;10.90;88.40;;;;;;1928377;74;21003;-57
2022/05/02 10:07:18;;;;;;;4.10;3.05;;;10.90;88.30;;;;;;1797253;74;21188;-55
2022/05/02 10:10:10;;;;;;;3.27;2.98;;;10.90;88.30;;;;;;1928303;74;21023;-57
2022/05/02 10:12:42;;;;;;;4.10;2.72;;;10.90;88.10;;;;;;1928165;74;21120;-57
2022/05/02 10:15:39;;;;;;;4.00;2.98;;;10.90;87.90;;;;;;1928233;74;21051;-57
2022/05/02 10:18:16;;;;;;;2.60;2.22;;;10.90;88.20;;;;;;1928262;74;21023;-56
2022/05/02 10:21:09;;;;;;;4.58;2.52;;;11.00;88.30;;;;;;1927059;74;21504;-56
2022/05/02 10:23:58;;;;;;;3.60;2.33;;;11.00;88.20;;;;;;1926722;74;21055;-57
2022/05/02 10:26:39;;;;;;;2.95;2.62;;;11.00;87.90;;;;;;1927940;74;20999;-57
2022/05/02 10:29:36;;;;;;;2.90;2.62;;;11.00;87.60;;;;;;1928332;74;21038;-56
2022/05/02 10:32:20;;;;;;;2.70;2.42;;;11.00;87.90;;;;;;1924940;74;21063;-56
2022/05/02 10:34:52;;;;;;;3.97;2.80;;;11.00;88.40;;;;;;1911968;75;21113;-56
2022/05/02 10:37:24;;;;;;;5.00;2.70;;;11.00;87.90;;;;;;1912019;75;21028;-56
2022/05/02 10:39:56;;;;;;;2.05;1.70;;;11.00;88.10;;;;;;1911673;75;21032;-57
2022/05/02 10:42:27;;;;;;;5.92;2.90;;;11.00;87.20;;;;;;1911989;75;21113;-56
2022/05/02 10:45:08;;;;;;;2.10;1.80;;;10.90;87.50;;;;;;1912043;75;21032;-56
2022/05/02 10:47:49;;;;;;;3.05;2.45;;;11.00;87.10;;;;;;1911033;75;21047;-56
2022/05/02 10:50:21;;;;;;;3.17;2.75;;;11.00;87.10;;;;;;1911864;74;21052;-56
2022/05/02 10:52:56;;;;;;;3.55;2.42;;;11.00;86.90;;;;;;1911931;75;21027;-56
2022/05/02 10:55:29;;;;;;;;;;;11.00;86.90;;;;;;1914127;75;21103;-56
2022/05/02 10:58:03;;;;;;;3.08;2.77;;;11.10;87.40;;;;;;1911836;75;20107;-56
2022/05/02 11:00:33;;;;;;;4.65;2.65;;;11.10;87.00;;;;;;1911946;75;21003;-56
2022/05/02 11:03:05;;;;;;;2.85;2.65;;;11.10;86.40;;;;;;1911816;75;21039;-55
2022/05/02 11:05:56;;;;;;;3.25;2.45;;;11.10;86.90;;;;;;1910799;75;21098;-56
2022/05/02 11:08:30;;;;;;;4.00;3.33;;;11.10;86.30;;;;;;1911845;75;21140;-55
2022/05/02 11:11:08;;;;;;;1.92;1.80;;;11.10;86.00;;;;;;1897134;75;21113;-56
2022/05/02 11:13:59;;;;;;;4.45;3.30;;;11.20;85.80;;;;;;1911926;75;21113;-59
2022/05/02 11:16:34;;;;;;;4.42;3.05;;;11.10;86.30;;;;;;1911978;75;21040;-56
2022/05/02 11:22:21;;;;;;;2.55;2.22;;;11.10;86.80;;;;;;1911855;75;20396;-57
2022/05/02 11:25:08;;;;;;;3.58;2.52;;;11.10;86.90;;;;;;1911678;75;21091;-57
2022/05/02 11:27:45;;;;;;;1.90;1.80;;;11.10;87.00;;;;;;1911614;74;21027;-57
2022/05/02 11:30:16;;;;;;;2.35;2.15;;;11.10;86.80;;;;;;1911924;75;21168;-56
2022/05/02 11:32:51;;;;;;;2.87;2.55;;;11.00;87.00;;;;;;1916078;74;21629;-56
2022/05/02 11:35:26;;;;;;;2.55;2.25;;;10.90;87.10;;;;;;1928397;74;21051;-56
2022/05/02 11:38:01;;;;;;;2.20;2.00;;;10.90;87.50;;;;;;1928243;74;21046;-56
2022/05/02 11:40:37;;;;;;;4.40;3.12;;;10.90;87.40;;;;;;1927681;74;21025;-57
2022/05/02 11:43:04;;;;;;;3.45;2.45;;;10.80;87.50;;;;;;1927662;74;21461;-56
2022/05/02 11:45:44;;;;;;;5.87;3.92;;;10.80;87.70;;;;;;1928259;74;21034;-57
2022/05/02 11:48:22;;;;;;;4.42;3.52;;;10.80;87.80;;;;;;1928041;74;21047;-57
2022/05/02 11:50:54;;;;;;;4.17;3.25;;;10.90;87.80;;;;;;1928434;74;21015;-56
2022/05/02 11:53:26;;;;;;;4.03;2.58;;;10.90;87.90;;;;;;1928475;74;21120;-57
2022/05/02 11:55:58;;;;;;;3.62;2.90;;;10.90;87.80;;;;;;1928333;74;21054;-56
2022/05/02 11:58:29;;;;;;;5.12;3.08;;;10.90;87.80;;;;;;1927768;74;21051;-57
2022/05/02 12:01:02;;;;;;;6.35;3.05;;;10.90;87.80;;;;;;1927247;74;21121;-56
2022/05/02 12:03:43;;;;;;;4.42;3.10;;;10.90;87.80;;;;;;1927328;74;21046;-56
2022/05/02 12:06:14;;;;;;;3.05;2.83;;;10.90;87.40;;;;;;1926692;74;21035;-56
2022/05/02 12:08:50;;;;;;;5.30;3.08;;;10.90;87.50;;;;;;1928328;74;20999;-57
2022/05/02 12:11:16;;;;;;;4.08;2.75;;;10.90;87.50;;;;;;1927252;74;21035;-56
2022/05/02 12:13:47;;;;;;;2.45;2.10;;;10.90;87.30;;;;;;1928341;74;21074;-56
2022/05/02 12:16:20;;;;;;;2.92;2.50;;;10.90;86.90;;;;;;1928471;74;21100;-56
2022/05/02 12:18:57;;;;;;;3.67;2.83;;;10.90;87.10;;;;;;1928277;74;21109;-56
2022/05/02 12:21:32;;;;;;;4.05;3.27;;;10.90;87.20;;;;;;1928272;74;21027;-57
2022/05/02 12:24:03;;;;;;;3.35;2.55;;;10.90;87.10;;;;;;1928151;74;21039;-56
2022/05/02 12:26:35;;;;;;;3.50;2.58;;;10.90;87.00;;;;;;1928150;74;21112;-57
2022/05/02 12:29:07;;;;;;;3.95;2.42;;;10.90;86.70;;;;;;1928307;74;21032;-56
2022/05/02 12:31:38;;;;;;;2.98;2.65;;;10.90;86.70;;;;;;1926174;74;21031;-57
2022/05/02 12:34:12;;;;;;;2.67;2.47;;;10.80;86.90;;;;;;1928074;74;21128;-59
2022/05/02 12:36:49;;;;;;;4.15;2.50;;;10.80;86.60;;;;;;1928339;74;21101;-57
2022/05/02 12:39:21;;;;;;;4.75;2.95;;;10.80;87.10;;;;;;1928262;74;21476;-57
2022/05/02 12:41:52;;;;;;;4.22;2.92;;;10.90;87.10;;;;;;1927992;74;21453;-57
2022/05/02 12:44:24;;;;;;;3.58;2.50;;;10.90;86.90;;;;;;1926989;74;21034;-57
2022/05/02 12:46:56;;;;;;;4.53;2.60;;;10.90;86.70;;;;;;1928290;74;21018;-57
2022/05/02 12:49:30;;;;;;;2.67;1.90;;;10.90;86.30;;;;;;1928245;74;21078;-57
2022/05/02 12:52:00;;;;;;;2.00;1.80;;;10.90;86.20;;;;;;1928580;74;21034;-57
2022/05/02 12:54:30;;;;;;;3.77;3.08;;;10.90;86.40;;;;;;1928248;74;21531;-57
2022/05/02 13:02:54;;;;;;;4.47;2.92;;;11.00;87.30;;;;;;1928364;74;21042;-57
2022/05/02 13:05:25;;;;;;;3.70;3.27;;;11.00;86.50;;;;;;1928122;74;21117;-57
2022/05/02 13:07:55;;;;;;;6.67;2.80;;;11.10;86.60;;;;;;1928271;74;21089;-57
2022/05/02 13:10:27;;;;;;;3.15;2.30;;;11.10;86.00;;;;;;1928161;74;21031;-57
2022/05/02 13:13:02;;;;;;;3.92;3.30;;;11.10;86.00;;;;;;1928077;74;21164;-58
2022/05/02 13:15:34;;;;;;;5.08;2.90;;;11.20;86.20;;;;;;1928348;74;21473;-57
2022/05/02 13:18:06;;;;;;;4.78;2.92;;;11.20;86.00;;;;;;1927544;74;21047;-57
2022/05/02 13:20:35;;;;;;;4.83;3.80;;;11.20;85.80;;;;;;1928126;74;21023;-57
2022/05/02 13:23:14;;;;;;;1.77;1.67;;;11.30;85.90;;;;;;1928204;74;21031;-57
2022/05/02 13:26:07;;;;;;;2.15;1.90;;;11.30;84.40;;;;;;1927624;74;21062;-57
2022/05/02 13:28:58;;;;;;;4.42;2.87;;;11.30;84.50;;;;;;1928405;74;21051;-57
2022/05/02 13:31:39;;;;;;;2.92;2.25;;;11.30;84.40;;;;;;1928245;74;21105;-58
2022/05/02 13:34:11;;;;;;;2.40;1.82;;;11.30;84.70;;;;;;1921891;74;21192;-57
2022/05/02 13:36:43;;;;;;;2.65;1.95;;;11.20;84.20;;;;;;1910901;74;21028;-57
2022/05/02 13:39:17;;;;;;;4.60;2.58;;;11.20;83.80;;;;;;1911898;75;21183;-57
2022/05/02 13:41:49;;;;;;;3.05;2.47;;;11.20;84.10;;;;;;1912025;75;21039;-57
2022/05/02 13:44:43;;;;;;;4.45;3.33;;;11.20;84.40;;;;;;1911845;75;21088;-57
2022/05/02 13:47:14;;;;;;;3.87;3.47;;;11.20;84.80;;;;;;1911912;75;21023;-57
2022/05/02 13:50:03;;;;;;;4.60;3.45;;;11.20;84.40;;;;;;1911915;75;21023;-58
2022/05/02 13:52:47;;;;;;;3.85;3.37;;;11.20;84.50;;;;;;1912052;75;21036;-56
2022/05/02 13:55:38;;;;;;;2.50;2.10;;;11.20;84.40;;;;;;1911891;75;21039;-56
2022/05/02 13:58:29;;;;;;;3.22;2.52;;;11.20;83.80;;;;;;1911916;75;21064;-56
2022/05/02 14:03:50;;;;;;;3.22;1.62;;;11.20;84.20;;;;;;1911738;75;21101;-57
2022/05/02 14:06:22;;;;;;;3.72;2.40;;;11.20;84.30;;;;;;1911922;74;21114;-57
2022/05/02 14:08:48;;;;;;;2.62;2.37;;;11.20;84.30;;;;;;1911968;74;21004;-57
2022/05/02 14:11:18;;;;;;;3.00;2.70;;;11.20;83.80;;;;;;1911975;75;21035;-58
2022/05/02 14:13:49;;;;;;;3.75;2.27;;;11.20;84.40;;;;;;1911953;75;21044;-58